North Topsail Beach, North Carolina
Current Conditions -  °F | °C
As of 6:56 PM on Monday 24 Nov 2014 (Local Time) from KNCA Reporting Station
Broken Clouds Broken Clouds  
Wind Chill: 70°   Ceiling: 11000
Heat Index: 70°   Visibility: 9mi
Dew Point: 68°   Wind: 8mph
Humidity: 93%   Direction: 230°SW
Pressure: 29.91"   Gusts: NA
Location:  34.5396°N, 77.4388°W
Report Text: KNCA 242356Z 23007KT 9SM FEW010 SCT085 BKN110 21/20 A2991 RMK AO2 SLP131 60004 T02110200 10228 20211 51006
Loading
Personal Weather Stations






























Interactive Weather Map New forecast layout! Learn more

10-Day Weather Forecast

Advertisements
Track Severe Weather on mobile